Archival Weather

Komakuk Beach

Komakuk Beach, Canada (CWKM)

Report from: Saturday, April 1, 2023 6:00 AM UTC
Current time: Sunday, October 1, 2023 1:58 AM UTC

Current weather
Weather history
Weather forecast

Present weatherSM
Temperature-17.0°C (1.4°F)
Wind chill-29.9°C (-21.9°F)
Dew point-20.0°C (-4.0°F)
Winds 21 kts (10.8 m/s, 24.2 mph) East (100°)
Visibility0 mi. (0 km)
Clouds Sky clear
Altimeter29.84 in.Hg (1010 mB)
Relative humidity77 %
Density altitude-3,948 ft. (-1,203 m)
Remarks Fully automated report
No clouds detected
Flight conditions Low Instrument Meteorological Conditions
Raw dataCWKM 010600Z AUTO 10021KT ////SM NCD M17/M20 A2984
An error has occurred. This application may no longer respond until reloaded. Reload 🗙